Airfield :
LOGIN :

Register | Disclaimer

   EN    FR    IT 

 










Legend :    VFR   Marginal VFR   IFR   Intensive IFR   Very Intensive IFR
Visi :
Ceiling :
>= 8 km
>= 3000ft
5 to 8 km
1000 to 3000 ft
1500m to 5 km
500 to 1000 ft
800 to 1500m
200 to 500 ft
< 800m
< 200 ft
Symbols :   Thunderstorms  Fog  Heavy snow  Heavy precipitations  Wind > 20 kt
SIGMETs :     Misc.  Thunderstorms  Icing  Turbulence  Mountain Waves  Volcanic Ashes






- Airport Elevation : 616 ft
- IATA code : PUF


LFBP - Pau

CURRENT METAR :
  • 152000Z AUTO 00000KT CAVOK 03/03 Q1005 NOSIG

EXPIRED METARs :
  • 151930Z AUTO 19003KT 9999 FEW036 SCT170 BKN190 04/03 Q1005 NOSIG
  • 151900Z AUTO 20002KT 9999 FEW030 BKN037 05/03 Q1005 NOSIG
  • 151830Z AUTO 23003KT 9999 BKN029 OVC038 05/04 Q1005 NOSIG
  • 151800Z AUTO VRB01KT 9999 BKN032 05/04 Q1004 NOSIG
  • 151730Z AUTO VRB02KT 9999 BKN021 BKN026 OVC034 05/04 Q1004 NOSIG

TAF TAF LFBP
Valid from the 15 at 18:00 until the 16 at 18:00 UTC


151700Z 1518/1618 22008KT 9999 BKN025
PROB40
TEMPO 1604/1610 3000 -SHRA BKN020TCU
TEMPO 1610/1618 26015G25KT 3000 RA SCT015CB BKN020TCU



MET'MAP, your aeronautical weather chart ! - Copyright ORBIFLY December 2007 - Disclaimer

ORBIFLY MET'MAP TEAM :

Programming & Development : Alexandra Zaïnal
Concept & Development : Baudouin d'Aumeries
Co-Development & Prog : Marc-Olivier Méhu
Technical & hardware support : Manuel Goepfert

Contact : metmap@orbifly.com




SOURCES & CREDITS :

   NOAA